Dover, Delaware
Current Conditions -  °F | °C
As of 6:58 AM on Thursday 23 Oct 2014 (Local Time) from KDOV Reporting Station
Overcast Overcast  
Wind Chill: 11°   Ceiling: 3000
Heat Index: 11°   Visibility: 10mi
Dew Point:   Wind: 20mph
Humidity: 76%   Direction: 310°NW
Pressure: 29.75"   Gusts: 24mph
Location:  39.16°N, 75.52°W
Report Text: KDOV 231058Z AUTO 31017G21KT 10SM OVC030 12/08 A2975 RMK AO2 SLP078 T01150075
Loading
Personal Weather Stations






























Interactive Weather Map
Tropical Storm Tracking
New forecast layout! Learn more

10-Day Weather Forecast

Advertisements
Track Severe Weather on mobile